sensor_id;sensor_type;location;lat;lon;timestamp;temperature;humidity
25264;DHT22;13211;51.796;5.808;2022-07-03T00:03:33;16.00;99.90
25264;DHT22;13211;51.796;5.808;2022-07-03T00:06:02;15.90;99.90
25264;DHT22;13211;51.796;5.808;2022-07-03T00:08:30;16.00;99.90
25264;DHT22;13211;51.796;5.808;2022-07-03T00:10:59;15.90;99.90
25264;DHT22;13211;51.796;5.808;2022-07-03T00:13:27;15.90;99.90
25264;DHT22;13211;51.796;5.808;2022-07-03T00:15:54;15.90;99.90
25264;DHT22;13211;51.796;5.808;2022-07-03T00:18:21;15.90;99.90
25264;DHT22;13211;51.796;5.808;2022-07-03T00:21:02;15.90;99.90
25264;DHT22;13211;51.796;5.808;2022-07-03T00:24:00;15.90;99.90
25264;DHT22;13211;51.796;5.808;2022-07-03T00:26:30;15.80;99.90
25264;DHT22;13211;51.796;5.808;2022-07-03T00:29:01;15.80;99.90
25264;DHT22;13211;51.796;5.808;2022-07-03T00:31:32;15.70;99.90
25264;DHT22;13211;51.796;5.808;2022-07-03T00:34:01;15.70;99.90
25264;DHT22;13211;51.796;5.808;2022-07-03T00:36:35;15.60;99.90
25264;DHT22;13211;51.796;5.808;2022-07-03T00:39:04;15.60;99.90
25264;DHT22;13211;51.796;5.808;2022-07-03T00:41:34;15.60;99.90
25264;DHT22;13211;51.796;5.808;2022-07-03T00:44:03;15.60;99.90
25264;DHT22;13211;51.796;5.808;2022-07-03T00:46:32;15.60;99.90
25264;DHT22;13211;51.796;5.808;2022-07-03T00:49:04;15.60;99.90
25264;DHT22;13211;51.796;5.808;2022-07-03T00:51:34;15.50;99.90
25264;DHT22;13211;51.796;5.808;2022-07-03T00:54:03;15.50;99.90
25264;DHT22;13211;51.796;5.808;2022-07-03T00:56:31;15.50;99.90
25264;DHT22;13211;51.796;5.808;2022-07-03T00:59:00;15.50;99.90
25264;DHT22;13211;51.796;5.808;2022-07-03T01:01:30;15.50;99.90
25264;DHT22;13211;51.796;5.808;2022-07-03T01:07:07;15.40;99.90
25264;DHT22;13211;51.796;5.808;2022-07-03T01:12:27;15.40;99.90
25264;DHT22;13211;51.796;5.808;2022-07-03T01:15:17;15.40;99.90
25264;DHT22;13211;51.796;5.808;2022-07-03T01:17:57;15.40;99.90
25264;DHT22;13211;51.796;5.808;2022-07-03T01:20:28;15.30;99.90
25264;DHT22;13211;51.796;5.808;2022-07-03T01:22:58;15.30;99.90
25264;DHT22;13211;51.796;5.808;2022-07-03T01:25:53;15.20;99.90
25264;DHT22;13211;51.796;5.808;2022-07-03T01:28:25;15.20;99.90
25264;DHT22;13211;51.796;5.808;2022-07-03T01:30:57;15.20;99.90
25264;DHT22;13211;51.796;5.808;2022-07-03T01:33:32;15.20;99.90
25264;DHT22;13211;51.796;5.808;2022-07-03T01:36:04;15.20;99.90
25264;DHT22;13211;51.796;5.808;2022-07-03T01:38:39;15.20;99.90
25264;DHT22;13211;51.796;5.808;2022-07-03T01:41:09;15.10;99.90
25264;DHT22;13211;51.796;5.808;2022-07-03T01:43:48;15.10;99.90
25264;DHT22;13211;51.796;5.808;2022-07-03T01:46:21;15.10;99.90
25264;DHT22;13211;51.796;5.808;2022-07-03T01:48:55;15.10;99.90
25264;DHT22;13211;51.796;5.808;2022-07-03T01:51:23;15.10;99.90
25264;DHT22;13211;51.796;5.808;2022-07-03T01:53:55;15.10;99.90
25264;DHT22;13211;51.796;5.808;2022-07-03T01:56:25;15.10;99.90
25264;DHT22;13211;51.796;5.808;2022-07-03T01:58:53;15.10;99.90
25264;DHT22;13211;51.796;5.808;2022-07-03T02:01:37;15.10;99.90
25264;DHT22;13211;51.796;5.808;2022-07-03T02:09:18;15.10;99.90
25264;DHT22;13211;51.796;5.808;2022-07-03T02:12:12;15.10;99.90
25264;DHT22;13211;51.796;5.808;2022-07-03T02:14:48;15.20;99.90
25264;DHT22;13211;51.796;5.808;2022-07-03T02:17:21;15.20;99.90
25264;DHT22;13211;51.796;5.808;2022-07-03T02:19:54;15.10;99.90
25264;DHT22;13211;51.796;5.808;2022-07-03T02:22:30;15.10;99.90
25264;DHT22;13211;51.796;5.808;2022-07-03T02:25:07;15.10;99.90
25264;DHT22;13211;51.796;5.808;2022-07-03T02:27:57;15.10;99.90
25264;DHT22;13211;51.796;5.808;2022-07-03T02:30:29;15.10;99.90
25264;DHT22;13211;51.796;5.808;2022-07-03T02:32:59;15.10;99.90
25264;DHT22;13211;51.796;5.808;2022-07-03T02:35:32;15.10;99.90
25264;DHT22;13211;51.796;5.808;2022-07-03T02:43:57;15.00;99.90
25264;DHT22;13211;51.796;5.808;2022-07-03T02:46:59;14.90;99.90
25264;DHT22;13211;51.796;5.808;2022-07-03T02:49:56;14.80;99.90
25264;DHT22;13211;51.796;5.808;2022-07-03T02:52:34;14.80;99.90
25264;DHT22;13211;51.796;5.808;2022-07-03T02:57:40;14.80;99.90
25264;DHT22;13211;51.796;5.808;2022-07-03T03:00:10;14.70;99.90
25264;DHT22;13211;51.796;5.808;2022-07-03T03:08:05;14.60;99.90
25264;DHT22;13211;51.796;5.808;2022-07-03T03:10:36;14.60;99.90
25264;DHT22;13211;51.796;5.808;2022-07-03T03:13:13;14.60;99.90
25264;DHT22;13211;51.796;5.808;2022-07-03T03:16:10;14.50;99.90
25264;DHT22;13211;51.796;5.808;2022-07-03T03:18:38;14.50;99.90
25264;DHT22;13211;51.796;5.808;2022-07-03T03:21:11;14.40;99.90
25264;DHT22;13211;51.796;5.808;2022-07-03T03:26:11;14.40;99.90
25264;DHT22;13211;51.796;5.808;2022-07-03T03:28:39;14.40;99.90
25264;DHT22;13211;51.796;5.808;2022-07-03T03:31:11;14.30;99.90
25264;DHT22;13211;51.796;5.808;2022-07-03T03:33:45;14.30;99.90
25264;DHT22;13211;51.796;5.808;2022-07-03T03:36:15;14.20;99.90
25264;DHT22;13211;51.796;5.808;2022-07-03T03:38:47;14.20;99.90
25264;DHT22;13211;51.796;5.808;2022-07-03T03:41:15;14.20;99.90
25264;DHT22;13211;51.796;5.808;2022-07-03T03:43:44;14.20;99.90
25264;DHT22;13211;51.796;5.808;2022-07-03T03:46:16;14.20;99.90
25264;DHT22;13211;51.796;5.808;2022-07-03T03:48:44;14.20;99.90
25264;DHT22;13211;51.796;5.808;2022-07-03T03:51:11;14.20;99.90
25264;DHT22;13211;51.796;5.808;2022-07-03T03:53:40;14.10;99.90
25264;DHT22;13211;51.796;5.808;2022-07-03T03:56:12;14.10;99.90
25264;DHT22;13211;51.796;5.808;2022-07-03T03:58:43;14.10;99.90
25264;DHT22;13211;51.796;5.808;2022-07-03T04:01:11;14.10;99.90
25264;DHT22;13211;51.796;5.808;2022-07-03T04:03:39;14.10;99.90
25264;DHT22;13211;51.796;5.808;2022-07-03T04:06:08;14.10;99.90
25264;DHT22;13211;51.796;5.808;2022-07-03T04:08:35;14.20;99.90
25264;DHT22;13211;51.796;5.808;2022-07-03T04:11:03;14.20;99.90
25264;DHT22;13211;51.796;5.808;2022-07-03T04:13:30;14.20;99.90
25264;DHT22;13211;51.796;5.808;2022-07-03T04:15:59;14.20;99.90
25264;DHT22;13211;51.796;5.808;2022-07-03T04:18:26;14.20;99.90
25264;DHT22;13211;51.796;5.808;2022-07-03T04:20:59;14.20;99.90
25264;DHT22;13211;51.796;5.808;2022-07-03T04:23:26;14.30;99.90
25264;DHT22;13211;51.796;5.808;2022-07-03T04:25:54;14.30;99.90
25264;DHT22;13211;51.796;5.808;2022-07-03T04:28:22;14.30;99.90
25264;DHT22;13211;51.796;5.808;2022-07-03T04:30:50;14.20;99.90
25264;DHT22;13211;51.796;5.808;2022-07-03T04:33:17;14.20;99.90
25264;DHT22;13211;51.796;5.808;2022-07-03T04:35:45;14.20;99.90
25264;DHT22;13211;51.796;5.808;2022-07-03T04:38:12;14.20;99.90
25264;DHT22;13211;51.796;5.808;2022-07-03T04:40:44;14.20;99.90
25264;DHT22;13211;51.796;5.808;2022-07-03T04:43:11;14.20;99.90
25264;DHT22;13211;51.796;5.808;2022-07-03T04:45:38;14.20;99.90
25264;DHT22;13211;51.796;5.808;2022-07-03T04:48:05;14.20;99.90
25264;DHT22;13211;51.796;5.808;2022-07-03T04:50:33;14.20;99.90
25264;DHT22;13211;51.796;5.808;2022-07-03T04:53:00;14.20;99.90
25264;DHT22;13211;51.796;5.808;2022-07-03T04:55:28;14.20;99.90
25264;DHT22;13211;51.796;5.808;2022-07-03T04:57:55;14.20;99.90
25264;DHT22;13211;51.796;5.808;2022-07-03T05:00:24;14.20;99.90
25264;DHT22;13211;51.796;5.808;2022-07-03T05:02:51;14.20;99.90
25264;DHT22;13211;51.796;5.808;2022-07-03T05:05:20;14.30;99.90
25264;DHT22;13211;51.796;5.808;2022-07-03T05:07:51;14.30;99.90
25264;DHT22;13211;51.796;5.808;2022-07-03T05:10:19;14.40;99.90
25264;DHT22;13211;51.796;5.808;2022-07-03T05:12:47;14.50;99.90
25264;DHT22;13211;51.796;5.808;2022-07-03T05:15:14;14.60;99.90
25264;DHT22;13211;51.796;5.808;2022-07-03T05:17:42;14.70;99.90
25264;DHT22;13211;51.796;5.808;2022-07-03T05:20:11;14.80;99.90
25264;DHT22;13211;51.796;5.808;2022-07-03T05:23:04;14.90;99.90
25264;DHT22;13211;51.796;5.808;2022-07-03T05:25:33;14.90;99.90
25264;DHT22;13211;51.796;5.808;2022-07-03T05:28:03;15.10;99.90
25264;DHT22;13211;51.796;5.808;2022-07-03T05:30:31;15.20;99.90
25264;DHT22;13211;51.796;5.808;2022-07-03T05:32:59;15.40;99.90
25264;DHT22;13211;51.796;5.808;2022-07-03T05:35:27;15.50;99.90
25264;DHT22;13211;51.796;5.808;2022-07-03T05:37:54;15.70;99.90
25264;DHT22;13211;51.796;5.808;2022-07-03T05:40:23;15.80;99.90
25264;DHT22;13211;51.796;5.808;2022-07-03T05:42:50;15.90;99.90
25264;DHT22;13211;51.796;5.808;2022-07-03T05:45:21;15.90;99.90
25264;DHT22;13211;51.796;5.808;2022-07-03T05:47:49;16.00;99.90
25264;DHT22;13211;51.796;5.808;2022-07-03T05:50:16;16.00;99.90
25264;DHT22;13211;51.796;5.808;2022-07-03T05:52:44;16.00;99.90
25264;DHT22;13211;51.796;5.808;2022-07-03T05:55:11;16.10;99.90
25264;DHT22;13211;51.796;5.808;2022-07-03T05:57:39;16.20;99.90
25264;DHT22;13211;51.796;5.808;2022-07-03T06:00:07;16.30;99.90
25264;DHT22;13211;51.796;5.808;2022-07-03T06:02:35;16.30;99.90
25264;DHT22;13211;51.796;5.808;2022-07-03T06:05:02;16.40;99.90
25264;DHT22;13211;51.796;5.808;2022-07-03T06:07:30;16.50;99.90
25264;DHT22;13211;51.796;5.808;2022-07-03T06:09:58;16.60;99.90
25264;DHT22;13211;51.796;5.808;2022-07-03T06:12:25;16.70;99.90
25264;DHT22;13211;51.796;5.808;2022-07-03T06:14:55;16.80;99.90
25264;DHT22;13211;51.796;5.808;2022-07-03T06:17:34;16.90;99.90
25264;DHT22;13211;51.796;5.808;2022-07-03T06:20:06;16.90;99.90
25264;DHT22;13211;51.796;5.808;2022-07-03T06:22:34;17.10;99.90
25264;DHT22;13211;51.796;5.808;2022-07-03T06:25:02;17.20;99.90
25264;DHT22;13211;51.796;5.808;2022-07-03T06:27:30;17.40;99.90
25264;DHT22;13211;51.796;5.808;2022-07-03T06:30:01;17.50;99.90
25264;DHT22;13211;51.796;5.808;2022-07-03T06:32:28;17.60;99.90
25264;DHT22;13211;51.796;5.808;2022-07-03T06:34:55;17.80;99.90
25264;DHT22;13211;51.796;5.808;2022-07-03T06:37:23;17.90;99.90
25264;DHT22;13211;51.796;5.808;2022-07-03T06:39:51;18.10;99.90
25264;DHT22;13211;51.796;5.808;2022-07-03T06:42:19;18.20;99.90
25264;DHT22;13211;51.796;5.808;2022-07-03T06:44:47;18.40;99.90
25264;DHT22;13211;51.796;5.808;2022-07-03T06:47:19;18.50;99.90
25264;DHT22;13211;51.796;5.808;2022-07-03T06:49:48;18.60;99.90
25264;DHT22;13211;51.796;5.808;2022-07-03T06:52:16;18.50;99.90
25264;DHT22;13211;51.796;5.808;2022-07-03T06:54:47;18.60;99.90
25264;DHT22;13211;51.796;5.808;2022-07-03T06:57:15;18.70;99.90
25264;DHT22;13211;51.796;5.808;2022-07-03T06:59:43;18.80;99.90
25264;DHT22;13211;51.796;5.808;2022-07-03T07:02:11;18.90;99.90
25264;DHT22;13211;51.796;5.808;2022-07-03T07:04:38;18.90;99.90
25264;DHT22;13211;51.796;5.808;2022-07-03T07:07:06;19.00;99.90
25264;DHT22;13211;51.796;5.808;2022-07-03T07:09:36;19.10;99.90
25264;DHT22;13211;51.796;5.808;2022-07-03T07:12:10;19.10;99.90
25264;DHT22;13211;51.796;5.808;2022-07-03T07:14:39;19.20;99.90
25264;DHT22;13211;51.796;5.808;2022-07-03T07:17:09;19.30;99.90
25264;DHT22;13211;51.796;5.808;2022-07-03T07:19:36;19.40;99.90
25264;DHT22;13211;51.796;5.808;2022-07-03T07:22:04;19.50;99.90
25264;DHT22;13211;51.796;5.808;2022-07-03T07:24:34;19.70;99.90
25264;DHT22;13211;51.796;5.808;2022-07-03T07:27:02;19.80;99.90
25264;DHT22;13211;51.796;5.808;2022-07-03T07:29:32;19.90;99.90
25264;DHT22;13211;51.796;5.808;2022-07-03T07:32:00;20.00;99.90
25264;DHT22;13211;51.796;5.808;2022-07-03T07:34:28;20.00;99.90
25264;DHT22;13211;51.796;5.808;2022-07-03T07:37:07;20.10;99.90
25264;DHT22;13211;51.796;5.808;2022-07-03T07:39:37;20.20;99.90
25264;DHT22;13211;51.796;5.808;2022-07-03T07:42:05;20.30;99.90
25264;DHT22;13211;51.796;5.808;2022-07-03T07:44:35;20.30;99.90
25264;DHT22;13211;51.796;5.808;2022-07-03T07:47:06;20.30;99.90
25264;DHT22;13211;51.796;5.808;2022-07-03T07:49:36;20.40;99.90
25264;DHT22;13211;51.796;5.808;2022-07-03T07:52:08;20.50;99.90
25264;DHT22;13211;51.796;5.808;2022-07-03T07:54:41;20.60;99.90
25264;DHT22;13211;51.796;5.808;2022-07-03T07:57:10;20.60;99.90
25264;DHT22;13211;51.796;5.808;2022-07-03T07:59:41;20.70;99.90
25264;DHT22;13211;51.796;5.808;2022-07-03T08:02:16;20.80;99.90
25264;DHT22;13211;51.796;5.808;2022-07-03T08:05:03;21.00;99.90
25264;DHT22;13211;51.796;5.808;2022-07-03T08:07:56;21.20;99.90
25264;DHT22;13211;51.796;5.808;2022-07-03T08:10:51;21.30;99.90
25264;DHT22;13211;51.796;5.808;2022-07-03T08:13:24;21.40;99.90
25264;DHT22;13211;51.796;5.808;2022-07-03T08:16:41;21.60;99.90
25264;DHT22;13211;51.796;5.808;2022-07-03T08:19:11;21.70;99.90
25264;DHT22;13211;51.796;5.808;2022-07-03T08:21:41;21.80;99.90
25264;DHT22;13211;51.796;5.808;2022-07-03T08:24:08;21.90;99.90
25264;DHT22;13211;51.796;5.808;2022-07-03T08:26:38;21.90;99.90
25264;DHT22;13211;51.796;5.808;2022-07-03T08:29:06;21.90;99.90
25264;DHT22;13211;51.796;5.808;2022-07-03T08:31:33;22.00;99.90
25264;DHT22;13211;51.796;5.808;2022-07-03T08:34:01;22.10;99.90
25264;DHT22;13211;51.796;5.808;2022-07-03T08:36:28;22.20;99.90
25264;DHT22;13211;51.796;5.808;2022-07-03T08:38:55;22.40;99.90
25264;DHT22;13211;51.796;5.808;2022-07-03T08:41:25;22.30;99.90
25264;DHT22;13211;51.796;5.808;2022-07-03T08:43:54;22.10;99.90
25264;DHT22;13211;51.796;5.808;2022-07-03T08:46:23;22.00;99.90
25264;DHT22;13211;51.796;5.808;2022-07-03T08:48:53;22.20;99.90
25264;DHT22;13211;51.796;5.808;2022-07-03T08:51:21;22.40;99.90
25264;DHT22;13211;51.796;5.808;2022-07-03T08:53:53;22.50;99.90
25264;DHT22;13211;51.796;5.808;2022-07-03T08:56:23;22.40;99.90
25264;DHT22;13211;51.796;5.808;2022-07-03T08:58:51;22.40;99.90
25264;DHT22;13211;51.796;5.808;2022-07-03T09:01:19;22.40;99.90
25264;DHT22;13211;51.796;5.808;2022-07-03T09:03:51;22.60;99.90
25264;DHT22;13211;51.796;5.808;2022-07-03T09:06:19;22.50;99.90
25264;DHT22;13211;51.796;5.808;2022-07-03T09:08:51;22.40;99.90
25264;DHT22;13211;51.796;5.808;2022-07-03T09:11:20;22.30;99.90
25264;DHT22;13211;51.796;5.808;2022-07-03T09:13:49;22.50;99.90
25264;DHT22;13211;51.796;5.808;2022-07-03T09:16:21;22.60;99.90
25264;DHT22;13211;51.796;5.808;2022-07-03T09:18:49;22.70;99.90
25264;DHT22;13211;51.796;5.808;2022-07-03T09:21:17;22.90;99.90
25264;DHT22;13211;51.796;5.808;2022-07-03T09:23:44;22.80;99.90
25264;DHT22;13211;51.796;5.808;2022-07-03T09:26:17;22.70;99.90
25264;DHT22;13211;51.796;5.808;2022-07-03T09:28:49;22.80;99.90
25264;DHT22;13211;51.796;5.808;2022-07-03T09:31:25;23.00;99.90
25264;DHT22;13211;51.796;5.808;2022-07-03T09:34:01;23.30;99.90
25264;DHT22;13211;51.796;5.808;2022-07-03T09:36:49;23.20;99.90
25264;DHT22;13211;51.796;5.808;2022-07-03T09:41:56;23.50;99.90
25264;DHT22;13211;51.796;5.808;2022-07-03T09:44:43;23.60;99.90
25264;DHT22;13211;51.796;5.808;2022-07-03T09:49:56;23.90;99.90
25264;DHT22;13211;51.796;5.808;2022-07-03T10:00:24;23.70;99.90
25264;DHT22;13211;51.796;5.808;2022-07-03T10:02:59;23.80;99.90
25264;DHT22;13211;51.796;5.808;2022-07-03T10:05:41;24.10;99.90
25264;DHT22;13211;51.796;5.808;2022-07-03T10:08:14;24.50;99.90
25264;DHT22;13211;51.796;5.808;2022-07-03T10:10:50;24.90;99.90
25264;DHT22;13211;51.796;5.808;2022-07-03T10:13:26;25.20;99.90
25264;DHT22;13211;51.796;5.808;2022-07-03T10:16:24;25.30;99.90
25264;DHT22;13211;51.796;5.808;2022-07-03T10:18:56;25.20;99.90
25264;DHT22;13211;51.796;5.808;2022-07-03T10:21:24;25.20;99.90
25264;DHT22;13211;51.796;5.808;2022-07-03T10:23:51;24.90;99.90
25264;DHT22;13211;51.796;5.808;2022-07-03T10:26:21;24.70;99.90
25264;DHT22;13211;51.796;5.808;2022-07-03T10:28:54;24.60;99.90
25264;DHT22;13211;51.796;5.808;2022-07-03T10:31:23;24.60;99.90
25264;DHT22;13211;51.796;5.808;2022-07-03T10:33:53;24.70;99.90
25264;DHT22;13211;51.796;5.808;2022-07-03T10:36:23;24.80;99.90
25264;DHT22;13211;51.796;5.808;2022-07-03T10:38:56;25.10;99.90
25264;DHT22;13211;51.796;5.808;2022-07-03T10:41:38;25.20;99.90
25264;DHT22;13211;51.796;5.808;2022-07-03T10:44:25;25.20;99.90
25264;DHT22;13211;51.796;5.808;2022-07-03T10:47:51;25.50;99.90
25264;DHT22;13211;51.796;5.808;2022-07-03T10:50:24;25.80;99.90
25264;DHT22;13211;51.796;5.808;2022-07-03T10:52:55;25.80;99.90
25264;DHT22;13211;51.796;5.808;2022-07-03T10:56:01;25.80;99.90
25264;DHT22;13211;51.796;5.808;2022-07-03T10:58:31;25.90;99.90
25264;DHT22;13211;51.796;5.808;2022-07-03T11:01:00;26.00;99.90
25264;DHT22;13211;51.796;5.808;2022-07-03T11:04:02;25.80;99.90
25264;DHT22;13211;51.796;5.808;2022-07-03T11:07:07;25.50;99.90
25264;DHT22;13211;51.796;5.808;2022-07-03T11:09:33;25.50;99.90
25264;DHT22;13211;51.796;5.808;2022-07-03T11:12:01;25.50;99.90
25264;DHT22;13211;51.796;5.808;2022-07-03T11:14:30;25.30;99.90
25264;DHT22;13211;51.796;5.808;2022-07-03T11:17:20;25.40;99.90
25264;DHT22;13211;51.796;5.808;2022-07-03T11:19:50;25.60;99.90
25264;DHT22;13211;51.796;5.808;2022-07-03T11:25:13;25.40;99.90
25264;DHT22;13211;51.796;5.808;2022-07-03T11:27:42;25.70;99.90
25264;DHT22;13211;51.796;5.808;2022-07-03T11:30:11;26.10;99.90
25264;DHT22;13211;51.796;5.808;2022-07-03T11:35:43;26.40;99.90
25264;DHT22;13211;51.796;5.808;2022-07-03T11:38:19;26.20;99.90
25264;DHT22;13211;51.796;5.808;2022-07-03T11:40:49;26.20;99.90
25264;DHT22;13211;51.796;5.808;2022-07-03T11:43:19;26.10;99.90
25264;DHT22;13211;51.796;5.808;2022-07-03T11:45:48;25.90;99.90
25264;DHT22;13211;51.796;5.808;2022-07-03T11:48:24;26.30;99.90
25264;DHT22;13211;51.796;5.808;2022-07-03T11:51:00;26.50;99.90
25264;DHT22;13211;51.796;5.808;2022-07-03T11:53:31;26.50;99.90
25264;DHT22;13211;51.796;5.808;2022-07-03T11:55:59;26.40;99.90
25264;DHT22;13211;51.796;5.808;2022-07-03T11:58:49;26.40;99.90
25264;DHT22;13211;51.796;5.808;2022-07-03T12:04:04;26.10;99.90
25264;DHT22;13211;51.796;5.808;2022-07-03T12:12:08;26.00;99.90
25264;DHT22;13211;51.796;5.808;2022-07-03T12:14:48;25.80;99.90
25264;DHT22;13211;51.796;5.808;2022-07-03T12:17:20;25.90;99.90
25264;DHT22;13211;51.796;5.808;2022-07-03T12:20:00;25.50;99.90
25264;DHT22;13211;51.796;5.808;2022-07-03T12:22:34;25.40;99.90
25264;DHT22;13211;51.796;5.808;2022-07-03T12:25:12;25.60;99.90
25264;DHT22;13211;51.796;5.808;2022-07-03T12:27:43;25.20;99.90
25264;DHT22;13211;51.796;5.808;2022-07-03T12:30:19;24.90;99.90
25264;DHT22;13211;51.796;5.808;2022-07-03T12:32:54;24.90;99.90
25264;DHT22;13211;51.796;5.808;2022-07-03T12:35:25;24.80;99.90
25264;DHT22;13211;51.796;5.808;2022-07-03T12:37:53;24.90;99.90
25264;DHT22;13211;51.796;5.808;2022-07-03T12:40:21;24.80;99.90
25264;DHT22;13211;51.796;5.808;2022-07-03T12:42:51;24.80;99.90
25264;DHT22;13211;51.796;5.808;2022-07-03T12:45:26;24.60;99.90
25264;DHT22;13211;51.796;5.808;2022-07-03T12:47:58;24.40;99.90
25264;DHT22;13211;51.796;5.808;2022-07-03T12:50:43;24.00;99.90
25264;DHT22;13211;51.796;5.808;2022-07-03T12:53:36;23.70;99.90
25264;DHT22;13211;51.796;5.808;2022-07-03T12:56:06;23.70;99.90
25264;DHT22;13211;51.796;5.808;2022-07-03T12:58:35;24.10;99.90
25264;DHT22;13211;51.796;5.808;2022-07-03T13:01:33;24.30;99.90
25264;DHT22;13211;51.796;5.808;2022-07-03T13:04:04;24.40;99.90
25264;DHT22;13211;51.796;5.808;2022-07-03T13:06:32;24.50;99.90
25264;DHT22;13211;51.796;5.808;2022-07-03T13:09:02;24.40;99.90
25264;DHT22;13211;51.796;5.808;2022-07-03T13:11:35;24.80;99.90
25264;DHT22;13211;51.796;5.808;2022-07-03T13:14:13;25.20;99.90
25264;DHT22;13211;51.796;5.808;2022-07-03T13:16:48;25.10;99.90
25264;DHT22;13211;51.796;5.808;2022-07-03T13:19:21;25.30;99.90
25264;DHT22;13211;51.796;5.808;2022-07-03T13:21:54;25.20;99.90
25264;DHT22;13211;51.796;5.808;2022-07-03T13:24:23;25.20;99.90
25264;DHT22;13211;51.796;5.808;2022-07-03T13:26:52;25.10;99.90
25264;DHT22;13211;51.796;5.808;2022-07-03T13:29:21;25.30;99.90
25264;DHT22;13211;51.796;5.808;2022-07-03T13:31:54;25.40;99.90
25264;DHT22;13211;51.796;5.808;2022-07-03T13:34:24;25.40;99.90
25264;DHT22;13211;51.796;5.808;2022-07-03T13:36:53;25.40;99.90
25264;DHT22;13211;51.796;5.808;2022-07-03T13:39:21;25.70;99.90
25264;DHT22;13211;51.796;5.808;2022-07-03T13:41:53;26.00;99.90
25264;DHT22;13211;51.796;5.808;2022-07-03T13:44:20;26.30;99.90
25264;DHT22;13211;51.796;5.808;2022-07-03T13:46:49;26.20;99.90
25264;DHT22;13211;51.796;5.808;2022-07-03T13:49:18;26.10;99.90
25264;DHT22;13211;51.796;5.808;2022-07-03T13:51:46;26.10;99.90
25264;DHT22;13211;51.796;5.808;2022-07-03T13:54:14;26.10;99.90
25264;DHT22;13211;51.796;5.808;2022-07-03T13:56:41;25.80;99.90
25264;DHT22;13211;51.796;5.808;2022-07-03T13:59:10;26.00;99.90
25264;DHT22;13211;51.796;5.808;2022-07-03T14:01:40;25.90;99.90
25264;DHT22;13211;51.796;5.808;2022-07-03T14:04:08;25.70;99.90
25264;DHT22;13211;51.796;5.808;2022-07-03T14:06:40;25.60;99.90
25264;DHT22;13211;51.796;5.808;2022-07-03T14:09:08;25.60;99.90
25264;DHT22;13211;51.796;5.808;2022-07-03T14:11:37;25.60;99.90
25264;DHT22;13211;51.796;5.808;2022-07-03T14:14:05;25.50;99.90
25264;DHT22;13211;51.796;5.808;2022-07-03T14:16:34;25.40;99.90
25264;DHT22;13211;51.796;5.808;2022-07-03T14:19:06;25.20;99.90
25264;DHT22;13211;51.796;5.808;2022-07-03T14:21:35;25.10;99.90
25264;DHT22;13211;51.796;5.808;2022-07-03T14:24:02;24.80;99.90
25264;DHT22;13211;51.796;5.808;2022-07-03T14:26:30;24.90;99.90
25264;DHT22;13211;51.796;5.808;2022-07-03T14:29:16;25.00;99.90
25264;DHT22;13211;51.796;5.808;2022-07-03T14:32:03;25.00;99.90
25264;DHT22;13211;51.796;5.808;2022-07-03T14:34:50;24.90;99.90
25264;DHT22;13211;51.796;5.808;2022-07-03T14:37:19;24.90;99.90
25264;DHT22;13211;51.796;5.808;2022-07-03T14:39:50;24.30;99.90
25264;DHT22;13211;51.796;5.808;2022-07-03T14:42:21;24.10;99.90
25264;DHT22;13211;51.796;5.808;2022-07-03T14:44:50;24.00;99.90
25264;DHT22;13211;51.796;5.808;2022-07-03T14:47:19;23.80;99.90
25264;DHT22;13211;51.796;5.808;2022-07-03T14:49:50;23.70;99.90
25264;DHT22;13211;51.796;5.808;2022-07-03T14:52:17;23.70;99.90
25264;DHT22;13211;51.796;5.808;2022-07-03T14:54:45;23.70;99.90
25264;DHT22;13211;51.796;5.808;2022-07-03T14:57:18;23.90;99.90
25264;DHT22;13211;51.796;5.808;2022-07-03T15:05:39;24.80;99.90
25264;DHT22;13211;51.796;5.808;2022-07-03T15:10:47;25.20;99.90
25264;DHT22;13211;51.796;5.808;2022-07-03T15:13:15;25.10;99.90
25264;DHT22;13211;51.796;5.808;2022-07-03T15:15:47;24.80;99.90
25264;DHT22;13211;51.796;5.808;2022-07-03T15:18:18;24.60;99.90
25264;DHT22;13211;51.796;5.808;2022-07-03T15:20:50;24.70;99.90
25264;DHT22;13211;51.796;5.808;2022-07-03T15:23:20;24.60;99.90
25264;DHT22;13211;51.796;5.808;2022-07-03T15:25:50;24.30;99.90
25264;DHT22;13211;51.796;5.808;2022-07-03T15:28:29;24.40;99.90
25264;DHT22;13211;51.796;5.808;2022-07-03T15:30:57;24.40;99.90
25264;DHT22;13211;51.796;5.808;2022-07-03T15:33:27;24.50;99.90
25264;DHT22;13211;51.796;5.808;2022-07-03T15:36:00;24.60;99.90
25264;DHT22;13211;51.796;5.808;2022-07-03T15:38:41;24.60;99.90
25264;DHT22;13211;51.796;5.808;2022-07-03T15:41:15;24.70;99.90
25264;DHT22;13211;51.796;5.808;2022-07-03T15:44:11;24.70;99.90
25264;DHT22;13211;51.796;5.808;2022-07-03T15:47:50;24.70;99.90
25264;DHT22;13211;51.796;5.808;2022-07-03T15:49:58;24.50;99.90
25264;DHT22;13211;51.796;5.808;2022-07-03T15:52:32;24.50;99.90
25264;DHT22;13211;51.796;5.808;2022-07-03T15:55:09;24.40;99.90
25264;DHT22;13211;51.796;5.808;2022-07-03T15:58:05;24.40;99.90
25264;DHT22;13211;51.796;5.808;2022-07-03T16:00:35;24.30;99.90
25264;DHT22;13211;51.796;5.808;2022-07-03T16:05:40;24.20;99.90
25264;DHT22;13211;51.796;5.808;2022-07-03T16:08:11;24.10;99.90
25264;DHT22;13211;51.796;5.808;2022-07-03T16:10:40;23.90;99.90
25264;DHT22;13211;51.796;5.808;2022-07-03T16:13:09;23.90;99.90
25264;DHT22;13211;51.796;5.808;2022-07-03T16:15:43;23.90;99.90
25264;DHT22;13211;51.796;5.808;2022-07-03T16:18:45;23.80;99.90
25264;DHT22;13211;51.796;5.808;2022-07-03T16:21:36;23.40;99.90
25264;DHT22;13211;51.796;5.808;2022-07-03T16:24:08;23.30;99.90
25264;DHT22;13211;51.796;5.808;2022-07-03T16:26:39;23.20;99.90
25264;DHT22;13211;51.796;5.808;2022-07-03T16:29:07;23.20;99.90
25264;DHT22;13211;51.796;5.808;2022-07-03T16:31:41;23.10;99.90
25264;DHT22;13211;51.796;5.808;2022-07-03T16:34:37;23.10;99.90
25264;DHT22;13211;51.796;5.808;2022-07-03T16:37:09;23.00;99.90
25264;DHT22;13211;51.796;5.808;2022-07-03T16:39:41;23.00;99.90
25264;DHT22;13211;51.796;5.808;2022-07-03T16:42:11;22.90;99.90
25264;DHT22;13211;51.796;5.808;2022-07-03T16:44:41;22.80;99.90
25264;DHT22;13211;51.796;5.808;2022-07-03T16:47:11;22.80;99.90
25264;DHT22;13211;51.796;5.808;2022-07-03T16:49:41;22.60;99.90
25264;DHT22;13211;51.796;5.808;2022-07-03T16:52:11;22.70;99.90
25264;DHT22;13211;51.796;5.808;2022-07-03T16:54:39;22.50;99.90
25264;DHT22;13211;51.796;5.808;2022-07-03T16:57:09;22.30;99.90
25264;DHT22;13211;51.796;5.808;2022-07-03T16:59:37;22.10;99.90
25264;DHT22;13211;51.796;5.808;2022-07-03T17:02:13;22.00;99.90
25264;DHT22;13211;51.796;5.808;2022-07-03T17:04:44;21.90;99.90
25264;DHT22;13211;51.796;5.808;2022-07-03T17:07:14;21.80;99.90
25264;DHT22;13211;51.796;5.808;2022-07-03T17:09:43;21.70;99.90
25264;DHT22;13211;51.796;5.808;2022-07-03T17:12:13;21.60;99.90